createdAt,value
2022-11-01T00:02:08.699Z,98655.10
2022-11-01T00:04:35.346Z,98654.36
2022-11-01T00:07:02.199Z,98653.94
2022-11-01T00:09:28.847Z,98654.39
2022-11-01T00:11:55.382Z,98654.14
2022-11-01T00:14:22.027Z,98654.52
2022-11-01T00:16:49.174Z,98647.07
2022-11-01T00:19:15.815Z,98647.04
2022-11-01T00:21:42.561Z,98642.97
2022-11-01T00:24:09.062Z,98643.38
2022-11-01T00:26:35.837Z,98633.84
2022-11-01T00:29:02.711Z,98631.88
2022-11-01T00:31:29.240Z,98629.57
2022-11-01T00:33:55.874Z,98628.75
2022-11-01T00:36:22.301Z,98625.04
2022-11-01T00:38:52.717Z,98623.72
2022-11-01T00:41:19.939Z,98620.73
2022-11-01T00:43:46.441Z,98620.48
2022-11-01T00:46:13.102Z,98616.66
2022-11-01T00:48:39.927Z,98618.67
2022-11-01T00:51:06.777Z,98615.45
2022-11-01T00:53:33.516Z,98615.02
2022-11-01T00:56:01.947Z,98609.84
2022-11-01T00:58:28.615Z,98608.64
2022-11-01T01:00:55.464Z,98605.71
2022-11-01T01:03:22.854Z,98604.60
2022-11-01T01:05:51.339Z,98598.40
2022-11-01T01:08:17.985Z,98598.12
2022-11-01T01:10:45.338Z,98595.41
2022-11-01T01:13:12.293Z,98600.52
2022-11-01T01:15:39.854Z,98597.88
2022-11-01T01:18:07.268Z,98600.00
2022-11-01T01:20:34.060Z,98599.17
2022-11-01T01:23:00.691Z,98600.17
2022-11-01T01:25:28.062Z,98597.04
2022-11-01T01:27:55.943Z,98597.38
2022-11-01T01:30:22.473Z,98595.58
2022-11-01T01:32:48.935Z,98597.48
2022-11-01T01:35:15.390Z,98596.67
2022-11-01T01:37:41.859Z,98596.42
2022-11-01T01:40:09.045Z,98598.11
2022-11-01T01:42:40.906Z,98591.16
2022-11-01T01:45:28.744Z,98594.14
2022-11-01T01:48:03.372Z,98590.38
2022-11-01T01:50:39.744Z,98586.95
2022-11-01T01:53:12.428Z,98587.59
2022-11-01T01:55:48.953Z,98584.17
2022-11-01T01:58:19.556Z,98582.27
2022-11-01T02:00:46.246Z,98582.64
2022-11-01T02:03:14.082Z,98584.54
2022-11-01T02:06:02.832Z,98586.83
2022-11-01T02:08:30.370Z,98579.01
2022-11-01T02:11:00.920Z,98574.58
2022-11-01T02:13:28.785Z,98571.44
2022-11-01T02:16:07.399Z,98567.48
2022-11-01T02:18:44.078Z,98563.54
2022-11-01T02:21:42.581Z,98559.27
2022-11-01T02:24:35.267Z,98553.31
2022-11-01T02:27:11.735Z,98556.44
2022-11-01T02:30:08.951Z,98553.88
2022-11-01T02:33:00.091Z,98555.67
2022-11-01T02:35:48.110Z,98552.98
2022-11-01T02:38:24.892Z,98550.96
2022-11-01T02:41:23.300Z,98543.83
2022-11-01T02:44:12.810Z,98546.27
2022-11-01T02:46:41.375Z,98545.93
2022-11-01T02:49:12.099Z,98543.86
2022-11-01T02:51:39.040Z,98543.36
2022-11-01T02:54:07.239Z,98543.05
2022-11-01T02:56:35.211Z,98544.06
2022-11-01T02:59:02.072Z,98546.48
2022-11-01T03:01:31.822Z,98550.65
2022-11-01T03:04:00.437Z,98547.11
2022-11-01T03:06:32.810Z,98549.41
2022-11-01T03:09:11.647Z,98552.80
2022-11-01T03:12:01.221Z,98556.41
2022-11-01T03:14:39.125Z,98551.97
2022-11-01T03:17:15.117Z,98550.79
2022-11-01T03:19:48.592Z,98546.98
2022-11-01T03:22:29.264Z,98551.55
2022-11-01T03:25:16.518Z,98552.11
2022-11-01T03:27:46.604Z,98546.96
2022-11-01T03:30:14.940Z,98541.05
2022-11-01T03:32:46.868Z,98538.40
2022-11-01T03:35:22.627Z,98537.42
2022-11-01T03:37:52.837Z,98536.25
2022-11-01T03:40:23.378Z,98535.77
2022-11-01T03:42:53.650Z,98539.88
2022-11-01T03:45:25.093Z,98538.66
2022-11-01T03:47:51.707Z,98542.83
2022-11-01T03:50:21.872Z,98543.41
2022-11-01T03:52:48.994Z,98540.88
2022-11-01T03:55:17.592Z,98531.94
2022-11-01T03:57:52.241Z,98528.77
2022-11-01T04:00:27.373Z,98534.19
2022-11-01T04:02:58.400Z,98534.22
2022-11-01T04:05:27.323Z,98532.88
2022-11-01T04:07:53.785Z,98533.27
2022-11-01T04:10:22.278Z,98521.27
2022-11-01T04:12:50.202Z,98515.20
2022-11-01T04:15:18.383Z,98509.15
2022-11-01T04:17:44.902Z,98510.88
2022-11-01T04:20:11.465Z,98514.98
2022-11-01T04:22:38.826Z,98513.13
2022-11-01T04:25:05.571Z,98508.94
2022-11-01T04:27:31.981Z,98509.38
2022-11-01T04:29:58.455Z,98509.80
2022-11-01T04:32:25.031Z,98509.85
2022-11-01T04:34:51.546Z,98508.40
2022-11-01T04:37:18.083Z,98511.41
2022-11-01T04:39:44.516Z,98509.80
2022-11-01T04:42:10.957Z,98503.22
2022-11-01T04:44:37.503Z,98504.98
2022-11-01T04:47:04.041Z,98501.79
2022-11-01T04:49:30.479Z,98501.84
2022-11-01T04:51:57.018Z,98504.57
2022-11-01T04:54:23.570Z,98505.77
2022-11-01T04:56:50.114Z,98500.90
2022-11-01T04:59:16.533Z,98498.80
2022-11-01T05:01:43.131Z,98493.37
2022-11-01T05:04:09.730Z,98496.28
2022-11-01T05:06:36.277Z,98494.19
2022-11-01T05:09:03.017Z,98494.34
2022-11-01T05:11:29.454Z,98495.09
2022-11-01T05:13:56.094Z,98493.42
2022-11-01T05:16:22.838Z,98493.79
2022-11-01T05:18:49.388Z,98493.84
2022-11-01T05:21:15.930Z,98496.95
2022-11-01T05:23:42.480Z,98495.41
2022-11-01T05:26:09.005Z,98495.26
2022-11-01T05:28:35.593Z,98491.48
2022-11-01T05:31:02.062Z,98491.73
2022-11-01T05:33:28.641Z,98492.66
2022-11-01T05:35:55.284Z,98485.55
2022-11-01T05:38:21.955Z,98486.80
2022-11-01T05:40:48.397Z,98486.20
2022-11-01T05:43:15.101Z,98482.53
2022-11-01T05:45:42.156Z,98480.75
2022-11-01T05:48:08.694Z,98482.79
2022-11-01T05:50:35.231Z,98483.39
2022-11-01T05:53:09.026Z,98482.11
2022-11-01T05:55:36.539Z,98477.88
2022-11-01T05:58:03.430Z,98473.91
2022-11-01T06:00:29.999Z,98477.89
2022-11-01T06:03:00.624Z,98474.95
2022-11-01T06:05:27.898Z,98476.98
2022-11-01T06:07:54.646Z,98475.90
2022-11-01T06:10:21.185Z,98469.81
2022-11-01T06:12:47.730Z,98472.33
2022-11-01T06:15:14.192Z,98472.43
2022-11-01T06:17:40.709Z,98463.77
2022-11-01T06:20:07.831Z,98472.25
2022-11-01T06:22:37.150Z,98469.71
2022-11-01T06:25:04.963Z,98474.86
2022-11-01T06:27:32.214Z,98473.83
2022-11-01T06:29:58.846Z,98469.65
2022-11-01T06:32:25.288Z,98468.10
2022-11-01T06:34:51.701Z,98469.67
2022-11-01T06:37:18.264Z,98470.29
2022-11-01T06:39:44.806Z,98468.48
2022-11-01T06:42:11.245Z,98474.77
2022-11-01T06:44:37.884Z,98468.81
2022-11-01T06:47:04.329Z,98470.08
2022-11-01T06:49:30.759Z,98462.43
2022-11-01T06:51:57.606Z,98461.20
2022-11-01T06:54:24.153Z,98459.73
2022-11-01T06:56:50.571Z,98466.43
2022-11-01T06:59:17.125Z,98466.99
2022-11-01T07:01:44.630Z,98469.34
2022-11-01T07:06:42.691Z,98462.20
2022-11-01T07:09:09.358Z,98458.88
2022-11-01T07:11:35.974Z,98459.44
2022-11-01T07:14:03.027Z,98461.23
2022-11-01T07:16:29.806Z,98454.77
2022-11-01T07:18:56.239Z,98454.02
2022-11-01T07:21:23.373Z,98451.94
2022-11-01T07:23:50.019Z,98449.93
2022-11-01T07:26:16.754Z,98452.08
2022-11-01T07:28:43.311Z,98453.39
2022-11-01T07:31:09.963Z,98450.06
2022-11-01T07:33:36.550Z,98442.30
2022-11-01T07:36:04.290Z,98438.48
2022-11-01T07:38:31.314Z,98439.83
2022-11-01T07:40:57.852Z,98438.98
2022-11-01T07:43:24.401Z,98439.95
2022-11-01T07:45:50.936Z,98440.80
2022-11-01T07:48:19.227Z,98442.27
2022-11-01T07:50:46.477Z,98441.06
2022-11-01T07:53:16.244Z,98438.64
2022-11-01T07:55:43.444Z,98436.64
2022-11-01T07:58:10.799Z,98435.45
2022-11-01T08:00:38.981Z,98428.48
2022-11-01T08:03:14.372Z,98427.16
2022-11-01T08:05:41.565Z,98424.51
2022-11-01T08:08:08.639Z,98422.83
2022-11-01T08:10:36.819Z,98413.87
2022-11-01T08:13:23.018Z,98403.42
2022-11-01T08:15:51.195Z,98399.00
2022-11-01T08:18:19.287Z,98394.73
2022-11-01T08:20:45.858Z,98395.94
2022-11-01T08:23:12.599Z,98390.32
2022-11-01T08:25:40.020Z,98393.06
2022-11-01T08:28:12.671Z,98391.16
2022-11-01T08:30:42.036Z,98391.73
2022-11-01T08:33:08.743Z,98386.58
2022-11-01T08:35:35.622Z,98384.55
2022-11-01T08:38:02.152Z,98374.33
2022-11-01T08:40:29.432Z,98374.31
2022-11-01T08:42:56.446Z,98370.63
2022-11-01T08:45:23.820Z,98368.09
2022-11-01T08:47:58.909Z,98368.40
2022-11-01T08:50:25.611Z,98373.89
2022-11-01T08:52:52.092Z,98372.46
2022-11-01T08:55:18.901Z,98374.11
2022-11-01T08:57:45.380Z,98369.73
2022-11-01T09:00:12.909Z,98368.44
2022-11-01T09:02:39.964Z,98367.66
2022-11-01T09:05:06.709Z,98380.41
2022-11-01T09:07:37.760Z,98381.81
2022-11-01T09:10:05.573Z,98374.33
2022-11-01T09:12:32.125Z,98377.91
2022-11-01T09:14:58.733Z,98374.41
2022-11-01T09:17:25.181Z,98370.86
2022-11-01T09:19:51.600Z,98379.33
2022-11-01T09:22:18.227Z,98374.95
2022-11-01T09:24:44.686Z,98364.85
2022-11-01T09:27:11.310Z,98366.11
2022-11-01T09:29:38.367Z,98365.53
2022-11-01T09:32:05.343Z,98363.31
2022-11-01T09:34:31.767Z,98356.41
2022-11-01T09:36:58.287Z,98359.41
2022-11-01T09:39:24.803Z,98357.52
2022-11-01T09:41:57.099Z,98358.13
2022-11-01T09:44:27.974Z,98361.56
2022-11-01T09:47:23.262Z,98355.22
2022-11-01T09:49:57.688Z,98353.21
2022-11-01T09:52:25.455Z,98351.75
2022-11-01T09:54:52.404Z,98352.38
2022-11-01T09:57:39.080Z,98349.64
2022-11-01T10:00:07.820Z,98342.71
2022-11-01T10:02:47.157Z,98341.88
2022-11-01T10:05:36.631Z,98344.10
2022-11-01T10:08:27.140Z,98340.94
2022-11-01T10:11:12.830Z,98339.58
2022-11-01T10:13:54.551Z,98335.96
2022-11-01T10:16:36.327Z,98333.13
2022-11-01T10:19:09.622Z,98329.83
2022-11-01T10:21:46.723Z,98331.30
2022-11-01T10:24:26.360Z,98328.83
2022-11-01T10:26:59.700Z,98332.85
2022-11-01T10:29:49.962Z,98331.73
2022-11-01T10:32:53.469Z,98329.60
2022-11-01T10:35:28.837Z,98324.44
2022-11-01T10:38:26.546Z,98321.72
2022-11-01T10:41:06.848Z,98323.27
2022-11-01T10:43:38.215Z,98327.26
2022-11-01T10:46:08.774Z,98327.05
2022-11-01T10:48:46.236Z,98327.25
2022-11-01T10:51:17.318Z,98330.83
2022-11-01T10:53:48.663Z,98334.20
2022-11-01T10:56:23.006Z,98334.48
2022-11-01T10:59:01.093Z,98341.13
2022-11-01T11:01:31.894Z,98345.36
2022-11-01T11:04:02.903Z,98337.22
2022-11-01T11:06:37.490Z,98345.73
2022-11-01T11:09:05.464Z,98340.81
2022-11-01T11:11:39.413Z,98336.05
2022-11-01T11:14:08.416Z,98335.63
2022-11-01T11:16:44.148Z,98334.23
2022-11-01T11:19:21.960Z,98333.22
2022-11-01T11:21:51.463Z,98332.88
2022-11-01T11:24:26.120Z,98335.63
2022-11-01T11:26:56.148Z,98336.52
2022-11-01T11:29:46.271Z,98336.08
2022-11-01T11:32:23.766Z,98334.17
2022-11-01T11:35:02.942Z,98333.96
2022-11-01T11:37:33.335Z,98338.84
2022-11-01T11:40:01.047Z,98342.73
2022-11-01T11:42:27.788Z,98341.81
2022-11-01T11:44:56.629Z,98338.95
2022-11-01T11:47:34.691Z,98340.73
2022-11-01T11:50:23.195Z,98337.98
2022-11-01T11:52:56.388Z,98333.77
2022-11-01T11:55:27.602Z,98333.36
2022-11-01T11:57:56.081Z,98329.38
2022-11-01T12:00:26.614Z,98326.78
2022-11-01T12:02:53.591Z,98329.92
2022-11-01T12:05:22.357Z,98330.40
2022-11-01T12:07:52.081Z,98327.78
2022-11-01T12:10:32.951Z,98326.44
2022-11-01T12:13:05.103Z,98327.02
2022-11-01T12:15:37.003Z,98327.06
2022-11-01T12:18:16.263Z,98321.23
2022-11-01T12:20:48.492Z,98324.77
2022-11-01T12:23:22.813Z,98319.44
2022-11-01T12:25:50.311Z,98317.61
2022-11-01T12:28:30.733Z,98315.56
2022-11-01T12:31:04.278Z,98314.59
2022-11-01T12:33:34.991Z,98317.98
2022-11-01T12:36:01.624Z,98317.48
2022-11-01T12:38:49.604Z,98315.29
2022-11-01T12:41:28.289Z,98313.17
2022-11-01T12:44:16.701Z,98312.63
2022-11-01T12:46:53.242Z,98311.20
2022-11-01T12:49:32.562Z,98310.23
2022-11-01T12:52:17.936Z,98313.77
2022-11-01T12:55:16.556Z,98311.35
2022-11-01T12:57:46.549Z,98315.71
2022-11-01T13:00:15.690Z,98314.57
2022-11-01T13:03:03.857Z,98314.59
2022-11-01T13:06:11.121Z,98314.27
2022-11-01T13:08:55.239Z,98312.16
2022-11-01T13:11:32.258Z,98314.66
2022-11-01T13:14:37.879Z,98317.77
2022-11-01T13:17:38.620Z,98319.91
2022-11-01T13:20:26.872Z,98329.23
2022-11-01T13:23:13.559Z,98331.05
2022-11-01T13:25:53.333Z,98328.66
2022-11-01T13:28:42.505Z,98335.19
2022-11-01T13:31:19.364Z,98337.95
2022-11-01T13:34:11.121Z,98342.84
2022-11-01T13:36:47.828Z,98342.16
2022-11-01T13:39:20.380Z,98345.94
2022-11-01T13:41:55.691Z,98351.73
2022-11-01T13:44:27.004Z,98353.29
2022-11-01T13:47:17.784Z,98354.96
2022-11-01T13:50:09.312Z,98360.44
2022-11-01T13:52:45.169Z,98367.64
2022-11-01T13:55:33.966Z,98372.94
2022-11-01T13:58:00.991Z,98373.73
2022-11-01T14:00:39.602Z,98369.30
2022-11-01T14:03:26.628Z,98377.35
2022-11-01T14:06:12.823Z,98373.20
2022-11-01T14:08:40.540Z,98375.05
2022-11-01T14:11:10.665Z,98377.75
2022-11-01T14:13:43.146Z,98376.16
2022-11-01T14:16:15.596Z,98381.68
2022-11-01T14:19:02.390Z,98384.20
2022-11-01T14:21:41.536Z,98390.43
2022-11-01T14:24:21.685Z,98387.70
2022-11-01T14:26:59.589Z,98390.41
2022-11-01T14:29:26.139Z,98390.73
2022-11-01T14:31:54.624Z,98390.52
2022-11-01T14:34:25.354Z,98389.46
2022-11-01T14:36:56.598Z,98396.92
2022-11-01T14:39:44.027Z,98404.36
2022-11-01T14:42:15.311Z,98405.78
2022-11-01T14:44:49.587Z,98404.38
2022-11-01T14:47:28.013Z,98408.14
2022-11-01T14:49:58.984Z,98409.60
2022-11-01T14:52:38.913Z,98412.20
2022-11-01T14:55:22.047Z,98412.70
2022-11-01T14:58:06.228Z,98421.89
2022-11-01T15:00:32.938Z,98422.36
2022-11-01T15:03:01.551Z,98427.40
2022-11-01T15:05:28.371Z,98427.76
2022-11-01T15:07:57.910Z,98432.45
2022-11-01T15:10:24.836Z,98435.42
2022-11-01T15:12:56.084Z,98432.97
2022-11-01T15:15:24.188Z,98432.94
2022-11-01T15:17:57.197Z,98438.70
2022-11-01T15:20:26.468Z,98439.71
2022-11-01T15:22:55.894Z,98438.74
2022-11-01T15:25:25.742Z,98445.84
2022-11-01T15:27:54.037Z,98450.10
2022-11-01T15:30:32.791Z,98450.54
2022-11-01T15:33:22.183Z,98457.30
2022-11-01T15:35:57.245Z,98468.27
2022-11-01T15:38:23.852Z,98469.70
2022-11-01T15:40:50.473Z,98473.66
2022-11-01T15:43:25.539Z,98479.70
2022-11-01T15:45:56.278Z,98483.80
2022-11-01T15:48:27.384Z,98491.42
2022-11-01T15:50:56.230Z,98493.68
2022-11-01T15:53:26.255Z,98498.22
2022-11-01T15:56:00.463Z,98499.02
2022-11-01T15:58:32.122Z,98500.55
2022-11-01T16:01:04.303Z,98500.80
2022-11-01T16:03:37.324Z,98507.92
2022-11-01T16:06:21.305Z,98508.33
2022-11-01T16:08:55.467Z,98511.55
2022-11-01T16:11:25.311Z,98521.31
2022-11-01T16:13:59.334Z,98524.26
2022-11-01T16:16:26.026Z,98527.34
2022-11-01T16:18:52.775Z,98531.95
2022-11-01T16:21:19.161Z,98536.33
2022-11-01T16:24:11.696Z,98537.11
2022-11-01T16:27:25.512Z,98539.98
2022-11-01T16:29:52.235Z,98545.39
2022-11-01T16:32:20.130Z,98547.53
2022-11-01T16:34:47.104Z,98542.63
2022-11-01T16:37:24.473Z,98543.94
2022-11-01T16:39:51.942Z,98549.69
2022-11-01T16:42:19.805Z,98554.81
2022-11-01T16:44:50.164Z,98555.05
2022-11-01T16:47:16.984Z,98555.92
2022-11-01T16:49:53.862Z,98559.24
2022-11-01T16:52:21.341Z,98565.86
2022-11-01T16:54:49.575Z,98562.65
2022-11-01T16:57:22.316Z,98563.07
2022-11-01T16:59:49.121Z,98560.95
2022-11-01T17:02:19.706Z,98566.50
2022-11-01T17:04:49.736Z,98560.84
2022-11-01T17:07:16.181Z,98562.23
2022-11-01T17:09:42.887Z,98564.88
2022-11-01T17:12:09.658Z,98568.52
2022-11-01T17:14:36.193Z,98566.41
2022-11-01T17:17:05.481Z,98567.50
2022-11-01T17:19:33.644Z,98566.48
2022-11-01T17:22:03.354Z,98565.02
2022-11-01T17:24:30.819Z,98564.09
2022-11-01T17:26:59.912Z,98567.39
2022-11-01T17:29:26.557Z,98568.48
2022-11-01T17:31:54.130Z,98568.92
2022-11-01T17:34:20.686Z,98568.09
2022-11-01T17:36:49.390Z,98570.17
2022-11-01T17:39:16.194Z,98570.36
2022-11-01T17:41:42.937Z,98568.34
2022-11-01T17:44:12.651Z,98565.25
2022-11-01T17:46:39.193Z,98568.84
2022-11-01T17:49:05.935Z,98564.28
2022-11-01T17:51:32.945Z,98571.09
2022-11-01T17:53:59.424Z,98573.91
2022-11-01T17:56:25.963Z,98578.25
2022-11-01T17:58:52.509Z,98571.74
2022-11-01T18:01:20.568Z,98568.72
2022-11-01T18:03:48.249Z,98568.11
2022-11-01T18:06:14.887Z,98573.88
2022-11-01T18:08:47.257Z,98571.52
2022-11-01T18:11:39.808Z,98572.30
2022-11-01T18:14:15.156Z,98573.08
2022-11-01T18:17:00.380Z,98579.69
2022-11-01T18:20:04.865Z,98579.27
2022-11-01T18:22:49.430Z,98575.30
2022-11-01T18:25:42.561Z,98575.86
2022-11-01T18:28:19.476Z,98574.39
2022-11-01T18:30:52.913Z,98576.42
2022-11-01T18:33:19.417Z,98575.91
2022-11-01T18:35:54.189Z,98578.20
2022-11-01T18:38:31.100Z,98582.01
2022-11-01T18:41:02.591Z,98584.96
2022-11-01T18:43:33.752Z,98583.56
2022-11-01T18:48:59.978Z,98583.63
2022-11-01T18:51:29.504Z,98580.90
2022-11-01T18:54:08.253Z,98580.89
2022-11-01T18:56:39.495Z,98585.48
2022-11-01T18:59:33.861Z,98587.39
2022-11-01T19:02:13.189Z,98592.84
2022-11-01T19:04:41.646Z,98600.23
2022-11-01T19:07:22.659Z,98603.56
2022-11-01T19:09:55.533Z,98607.13
2022-11-01T19:12:46.362Z,98606.98
2022-11-01T19:15:25.138Z,98608.39
2022-11-01T19:17:57.575Z,98607.97
2022-11-01T19:20:28.016Z,98608.64
2022-11-01T19:23:11.467Z,98612.69
2022-11-01T19:25:38.173Z,98615.89
2022-11-01T19:28:17.303Z,98623.59
2022-11-01T19:30:49.294Z,98626.12
2022-11-01T19:33:34.615Z,98625.73
2022-11-01T19:36:05.663Z,98625.02
2022-11-01T19:38:32.340Z,98626.41
2022-11-01T19:40:59.226Z,98627.08
2022-11-01T19:43:27.578Z,98632.20
2022-11-01T19:45:56.588Z,98631.48
2022-11-01T19:48:27.233Z,98631.37
2022-11-01T19:50:55.201Z,98629.88
2022-11-01T19:53:33.928Z,98628.58
2022-11-01T19:56:03.456Z,98628.85
2022-11-01T19:58:50.318Z,98635.90
2022-11-01T20:01:17.463Z,98642.23
2022-11-01T20:03:56.264Z,98642.46
2022-11-01T20:06:29.228Z,98637.05
2022-11-01T20:09:01.360Z,98639.57
2022-11-01T20:11:27.907Z,98642.96
2022-11-01T20:13:54.611Z,98646.90
2022-11-01T20:16:21.282Z,98653.20
2022-11-01T20:18:47.927Z,98656.02
2022-11-01T20:21:14.672Z,98656.67
2022-11-01T20:23:41.442Z,98658.36
2022-11-01T20:26:08.150Z,98665.77
2022-11-01T20:28:34.792Z,98671.48
2022-11-01T20:31:01.343Z,98671.71
2022-11-01T20:33:27.871Z,98672.16
2022-11-01T20:35:54.405Z,98672.18
2022-11-01T20:40:52.399Z,98672.80
2022-11-01T20:43:19.034Z,98675.42
2022-11-01T20:45:45.677Z,98678.04
2022-11-01T20:48:12.191Z,98682.27
2022-11-01T20:50:39.165Z,98678.94
2022-11-01T20:53:06.109Z,98681.61
2022-11-01T20:55:32.959Z,98683.63
2022-11-01T20:57:59.603Z,98688.42
2022-11-01T21:00:26.682Z,98690.39
2022-11-01T21:02:55.251Z,98690.25
2022-11-01T21:05:23.132Z,98694.58
2022-11-01T21:07:53.678Z,98694.27
2022-11-01T21:10:34.252Z,98696.03
2022-11-01T21:13:03.413Z,98700.89
2022-11-01T21:15:40.154Z,98693.98
2022-11-01T21:18:09.834Z,98699.56
2022-11-01T21:20:39.348Z,98698.05
2022-11-01T21:23:21.148Z,98699.46
2022-11-01T21:25:53.324Z,98694.17
2022-11-01T21:28:35.365Z,98690.59
2022-11-01T21:31:29.703Z,98685.06
2022-11-01T21:34:00.228Z,98688.80
2022-11-01T21:36:28.509Z,98693.95
2022-11-01T21:38:58.843Z,98694.11
2022-11-01T21:41:38.590Z,98689.55
2022-11-01T21:44:17.682Z,98686.52
2022-11-01T21:46:50.951Z,98682.48
2022-11-01T21:49:25.061Z,98685.04
2022-11-01T21:51:53.148Z,98685.42
2022-11-01T21:54:20.515Z,98682.89
2022-11-01T21:56:47.631Z,98685.34
2022-11-01T21:59:14.581Z,98686.44
2022-11-01T22:01:44.267Z,98686.14
2022-11-01T22:04:11.032Z,98687.73
2022-11-01T22:06:37.498Z,98692.21
2022-11-01T22:09:04.686Z,98692.55
2022-11-01T22:11:32.712Z,98689.16
2022-11-01T22:13:59.499Z,98689.16
2022-11-01T22:16:26.213Z,98687.28
2022-11-01T22:18:52.757Z,98691.93
2022-11-01T22:21:19.190Z,98694.21
2022-11-01T22:23:45.651Z,98691.65
2022-11-01T22:26:12.991Z,98690.49
2022-11-01T22:28:39.531Z,98687.30
2022-11-01T22:31:06.587Z,98688.78
2022-11-01T22:33:34.459Z,98685.96
2022-11-01T22:36:01.918Z,98687.00
2022-11-01T22:38:38.315Z,98686.63
2022-11-01T22:41:17.062Z,98688.17
2022-11-01T22:43:47.257Z,98686.91
2022-11-01T22:46:40.275Z,98690.27
2022-11-01T22:49:30.306Z,98692.94
2022-11-01T22:52:21.834Z,98692.52
2022-11-01T22:54:52.157Z,98696.73
2022-11-01T22:57:22.147Z,98696.42
2022-11-01T22:59:55.493Z,98697.48
2022-11-01T23:02:30.746Z,98698.84
2022-11-01T23:05:06.453Z,98696.02
2022-11-01T23:07:40.193Z,98694.63
2022-11-01T23:10:22.391Z,98695.02
2022-11-01T23:12:51.234Z,98696.27
2022-11-01T23:15:30.221Z,98691.91
2022-11-01T23:18:15.934Z,98698.43
2022-11-01T23:20:43.466Z,98692.73
2022-11-01T23:23:20.583Z,98696.35
2022-11-01T23:25:47.300Z,98693.73
2022-11-01T23:28:13.838Z,98688.55
2022-11-01T23:30:42.919Z,98688.17
2022-11-01T23:33:17.468Z,98689.33
2022-11-01T23:35:51.930Z,98688.56
2022-11-01T23:38:26.313Z,98694.74
2022-11-01T23:40:54.214Z,98691.61
2022-11-01T23:43:32.206Z,98692.75
2022-11-01T23:45:58.740Z,98691.59
2022-11-01T23:48:25.218Z,98693.52
2022-11-01T23:50:53.347Z,98691.45
2022-11-01T23:53:25.932Z,98692.44
2022-11-01T23:55:54.427Z,98687.98
2022-11-01T23:58:26.515Z,98686.45
